WetterOnline ( https://www.wetteronline.de )

Wetter aktuell Perleberg

Aktuelles Wetter: Seehausen (23m)

6-stündlich | Neueste Meldungen
Ortszeit Temperatur Wetter
Mi, 24.04. 20:00 21.1° C wolkenlos
Mi, 24.04. 14:00 21.6° C leicht bewölkt
Mi, 24.04. 8:00 12.7° C bewölkt
Mi, 24.04. 2:00 13.1° C wolkenlos
Di, 23.04. 20:00 16.5° C bedeckt
Di, 23.04. 14:00 19.3° C wolkenlos
Di, 23.04. 8:00 11.4° C wolkenlos
Di, 23.04. 2:00 12.6° C wolkenlos
Ortszeit Temperatur Wetter
Mi, 24.04. 20:00 21.1° C wolkenlos
Mi, 24.04. 19:50 21.1° C wolkenlos
Mi, 24.04. 19:40 21.4° C wolkenlos
Mi, 24.04. 19:30 21.9° C fast wolkenlos
Mi, 24.04. 19:20 21.9° C fast wolkenlos
Mi, 24.04. 19:10 22.1° C leicht bewölkt
Mi, 24.04. 19:00 22.4° C leicht bewölkt
Mi, 24.04. 18:30 22.8° C wolkenlos
Mi, 24.04. 18:00 23.2° C wolkenlos
Mi, 24.04. 17:30 23.4° C leicht bewölkt
Mi, 24.04. 17:00 23.4° C fast wolkenlos
Ortszeit Relative Feuchte Sichtweite
Mi, 24.04. 20:00 45% 25 km
Mi, 24.04. 14:00 45% 18 km
Mi, 24.04. 8:00 72% 21 km
Mi, 24.04. 2:00 63% 35 km
Di, 23.04. 20:00 51% 27 km
Di, 23.04. 14:00 34% 17 km
Di, 23.04. 8:00 52% 20 km
Di, 23.04. 2:00 56% 35 km
Ortszeit Relative Feuchte Sichtweite
Mi, 24.04. 20:00 45% 25 km
Mi, 24.04. 19:50 45% -
Mi, 24.04. 19:40 44% -
Mi, 24.04. 19:30 44% 28 km
Mi, 24.04. 19:20 44% -
Mi, 24.04. 19:10 43% -
Mi, 24.04. 19:00 42% 28 km
Mi, 24.04. 18:30 41% 21 km
Mi, 24.04. 18:00 40% 22 km
Mi, 24.04. 17:30 39% 26 km
Mi, 24.04. 17:00 39% 25 km
Ortszeit Niederschlagsmenge Niederschlagsart
Mi, 24.04. 20:00 0.0 l/m2 in 12 Std. -
Mi, 24.04. 14:00 0.0 l/m2 in 6 Std. -
Mi, 24.04. 8:00 0.0 l/m2 in 12 Std. -
Mi, 24.04. 2:00 0.0 l/m2 in 6 Std. -
Di, 23.04. 20:00 0.0 l/m2 in 12 Std. -
Di, 23.04. 14:00 0.0 l/m2 in 6 Std. -
Di, 23.04. 8:00 0.0 l/m2 in 12 Std. -
Di, 23.04. 2:00 0.0 l/m2 in 6 Std. -
Ortszeit Niederschlagsmenge Niederschlagsart
Mi, 24.04. 20:00 0.0 l/m2 in 1 Std. -
Mi, 24.04. 19:50 keine Meldung -
Mi, 24.04. 19:40 keine Meldung -
Mi, 24.04. 19:30 0.0 l/m2 in 1 Std. -
Mi, 24.04. 19:20 keine Meldung -
Mi, 24.04. 19:10 keine Meldung -
Mi, 24.04. 19:00 0.0 l/m2 in 1 Std. -
Mi, 24.04. 18:30 0.0 l/m2 in 1 Std. -
Mi, 24.04. 18:00 0.0 l/m2 in 1 Std. -
Mi, 24.04. 17:30 0.0 l/m2 in 1 Std. -
Mi, 24.04. 17:00 0.0 l/m2 in 1 Std. -
Ortszeit Stärke Spitze Richtung
km/h Bft. km/h Grad Sektor
Mi, 24.04. 20:00 17 3 39 110° O
Mi, 24.04. 14:00 20 4 37 110° O
Mi, 24.04. 8:00 18 3 36 120° SO
Mi, 24.04. 2:00 19 3 50 140° SO
Di, 23.04. 20:00 29 5 68 100° O
Di, 23.04. 14:00 31 5 57 90° O
Di, 23.04. 8:00 29 5 50 90° O
Di, 23.04. 2:00 20 4 44 100° O
Ortszeit Stärke Spitze Richtung
km/h Bft. km/h Grad Sektor
Mi, 24.04. 20:00 17 3 31 110° O
Mi, 24.04. 19:50 17 3 - 110° O
Mi, 24.04. 19:40 17 3 - 110° O
Mi, 24.04. 19:30 19 3 30 110° O
Mi, 24.04. 19:20 19 3 - 110° O
Mi, 24.04. 19:10 19 3 - 110° O
Mi, 24.04. 19:00 20 4 39 110° O
Mi, 24.04. 18:30 22 4 36 110° O
Mi, 24.04. 18:00 24 4 39 110° O
Mi, 24.04. 17:30 22 4 36 100° O
Mi, 24.04. 17:00 22 4 36 110° O
Ortszeit Untergrenze Bedeckung Gattung
total tief tief mittel hoch
Mi, 24.04. 20:00 - 0/8 0/8 - - -
Mi, 24.04. 14:00 7800 m 6/8 0/8 - - -
Mi, 24.04. 8:00 2400 m 8/8 7/8 - - -
Mi, 24.04. 2:00 - 0/8 0/8 - - -
Di, 23.04. 20:00 1500 m 8/8 8/8 - - -
Di, 23.04. 14:00 - 0/8 0/8 - - -
Di, 23.04. 8:00 - 0/8 0/8 - - -
Di, 23.04. 2:00 - 0/8 0/8 - - -
Ortszeit Bedeckungsgrad in Achtel und Wolkenuntergrenze
Mi, 24.04. 20:00 keine Wolken
Mi, 24.04. 19:50 keine Wolken
Mi, 24.04. 19:40 keine Wolken
Mi, 24.04. 19:30 2(9000m)
Mi, 24.04. 19:20 2(9000m)
Mi, 24.04. 19:10 5(9000m)
Mi, 24.04. 19:00 6(9000m)
Mi, 24.04. 18:30 keine Wolken
Mi, 24.04. 18:00 keine Wolken
Mi, 24.04. 17:30 2(9000m) 4(9000m)
Mi, 24.04. 17:00 2(9000m)
Ortszeit Luftdruck NN (hPa) Tendenz (hPa in 3 Std.)
Mi, 24.04. 20:00 1005 + 0,1
Mi, 24.04. 14:00 1006 - 0,2
Mi, 24.04. 8:00 1005 + 0,4
Mi, 24.04. 2:00 1005 - 0,3
Di, 23.04. 20:00 1006 - 0,5
Di, 23.04. 14:00 1008 - 2,4
Di, 23.04. 8:00 1011 - 0,9
Di, 23.04. 2:00 1014 - 1,3
Ortszeit Luftdruck NN (hPa) Tendenz (hPa in 3 Std.)
Mi, 24.04. 20:00 1005 + 0,1
Mi, 24.04. 19:50 1005 keine Meldung
Mi, 24.04. 19:40 1005 keine Meldung
Mi, 24.04. 19:30 1005 - 0,4
Mi, 24.04. 19:20 1005 keine Meldung
Mi, 24.04. 19:10 1005 keine Meldung
Mi, 24.04. 19:00 1005 - 0,7
Mi, 24.04. 18:30 1005 - 0,9
Mi, 24.04. 18:00 1005 - 0,9
Mi, 24.04. 17:30 1005 - 0,8
Mi, 24.04. 17:00 1005 - 0,7
Ortszeit Schneehöhe (cm)
Mi, 24.04. 20:00 0
Mi, 24.04. 14:00 0
Mi, 24.04. 8:00 0
Mi, 24.04. 2:00 0
Di, 23.04. 20:00 0
Di, 23.04. 14:00 0
Di, 23.04. 8:00 0
Di, 23.04. 2:00 0
Ortszeit Schneehöhe (cm)
Mi, 24.04. 20:00 0
Mi, 24.04. 19:50 0
Mi, 24.04. 19:40 0
Mi, 24.04. 19:30 0
Mi, 24.04. 19:20 0
Mi, 24.04. 19:10 0
Mi, 24.04. 19:00 0
Mi, 24.04. 18:30 0
Mi, 24.04. 18:00 0
Mi, 24.04. 17:30 0
Mi, 24.04. 17:00 0
Link zu dieser Seite / Seite empfehlen

Das Wetter in ...